sensor_id;sensor_type;location;lat;lon;timestamp;temperature;humidity
40085;DHT22;25786;51.504;7.344;2023-02-28T00:01:12;1.20;70.70
40085;DHT22;25786;51.504;7.344;2023-02-28T00:03:37;1.10;71.10
40085;DHT22;25786;51.504;7.344;2023-02-28T00:06:03;1.00;71.30
40085;DHT22;25786;51.504;7.344;2023-02-28T00:08:29;0.90;71.70
40085;DHT22;25786;51.504;7.344;2023-02-28T00:10:55;0.80;72.20
40085;DHT22;25786;51.504;7.344;2023-02-28T00:13:21;0.80;72.60
40085;DHT22;25786;51.504;7.344;2023-02-28T00:15:46;0.80;72.90
40085;DHT22;25786;51.504;7.344;2023-02-28T00:18:11;0.70;73.00
40085;DHT22;25786;51.504;7.344;2023-02-28T00:20:37;0.70;73.10
40085;DHT22;25786;51.504;7.344;2023-02-28T00:23:02;0.70;73.20
40085;DHT22;25786;51.504;7.344;2023-02-28T00:25:28;0.60;73.00
40085;DHT22;25786;51.504;7.344;2023-02-28T00:27:53;0.60;73.10
40085;DHT22;25786;51.504;7.344;2023-02-28T00:30:20;0.60;73.20
40085;DHT22;25786;51.504;7.344;2023-02-28T00:32:46;0.60;73.30
40085;DHT22;25786;51.504;7.344;2023-02-28T00:35:12;0.60;73.20
40085;DHT22;25786;51.504;7.344;2023-02-28T00:37:37;0.50;73.40
40085;DHT22;25786;51.504;7.344;2023-02-28T00:40:03;0.50;73.60
40085;DHT22;25786;51.504;7.344;2023-02-28T00:42:33;0.50;73.60
40085;DHT22;25786;51.504;7.344;2023-02-28T00:44:58;0.50;73.80
40085;DHT22;25786;51.504;7.344;2023-02-28T00:47:25;0.60;73.80
40085;DHT22;25786;51.504;7.344;2023-02-28T00:49:50;0.60;73.60
40085;DHT22;25786;51.504;7.344;2023-02-28T00:52:16;0.50;73.40
40085;DHT22;25786;51.504;7.344;2023-02-28T00:54:41;0.60;74.10
40085;DHT22;25786;51.504;7.344;2023-02-28T00:57:06;0.70;73.80
40085;DHT22;25786;51.504;7.344;2023-02-28T00:59:32;0.90;73.10
40085;DHT22;25786;51.504;7.344;2023-02-28T01:01:57;0.80;72.60
40085;DHT22;25786;51.504;7.344;2023-02-28T01:04:23;0.80;72.70
40085;DHT22;25786;51.504;7.344;2023-02-28T01:06:48;0.80;73.30
40085;DHT22;25786;51.504;7.344;2023-02-28T01:09:14;0.80;73.30
40085;DHT22;25786;51.504;7.344;2023-02-28T01:11:39;0.90;72.70
40085;DHT22;25786;51.504;7.344;2023-02-28T01:14:06;0.90;73.10
40085;DHT22;25786;51.504;7.344;2023-02-28T01:16:32;0.90;72.70
40085;DHT22;25786;51.504;7.344;2023-02-28T01:18:57;0.90;72.50
40085;DHT22;25786;51.504;7.344;2023-02-28T01:21:23;0.80;72.70
40085;DHT22;25786;51.504;7.344;2023-02-28T01:23:48;0.80;72.40
40085;DHT22;25786;51.504;7.344;2023-02-28T01:26:23;0.80;72.70
40085;DHT22;25786;51.504;7.344;2023-02-28T01:28:50;0.80;72.70
40085;DHT22;25786;51.504;7.344;2023-02-28T01:31:15;0.90;72.40
40085;DHT22;25786;51.504;7.344;2023-02-28T01:33:41;0.90;72.30
40085;DHT22;25786;51.504;7.344;2023-02-28T01:36:09;0.80;72.50
40085;DHT22;25786;51.504;7.344;2023-02-28T01:38:35;0.60;72.80
40085;DHT22;25786;51.504;7.344;2023-02-28T01:41:00;0.60;73.10
40085;DHT22;25786;51.504;7.344;2023-02-28T01:43:29;0.60;73.30
40085;DHT22;25786;51.504;7.344;2023-02-28T01:45:55;0.50;73.50
40085;DHT22;25786;51.504;7.344;2023-02-28T01:48:22;0.50;73.70
40085;DHT22;25786;51.504;7.344;2023-02-28T01:50:51;0.40;74.00
40085;DHT22;25786;51.504;7.344;2023-02-28T01:53:18;0.40;74.40
40085;DHT22;25786;51.504;7.344;2023-02-28T01:55:47;0.40;74.50
40085;DHT22;25786;51.504;7.344;2023-02-28T01:58:13;0.60;74.60
40085;DHT22;25786;51.504;7.344;2023-02-28T02:00:38;0.50;74.50
40085;DHT22;25786;51.504;7.344;2023-02-28T02:03:06;0.50;73.90
40085;DHT22;25786;51.504;7.344;2023-02-28T02:05:34;0.50;73.90
40085;DHT22;25786;51.504;7.344;2023-02-28T02:08:03;0.40;73.80
40085;DHT22;25786;51.504;7.344;2023-02-28T02:10:33;0.40;74.20
40085;DHT22;25786;51.504;7.344;2023-02-28T02:18:38;0.30;74.50
40085;DHT22;25786;51.504;7.344;2023-02-28T02:29:11;0.10;75.30
40085;DHT22;25786;51.504;7.344;2023-02-28T02:34:19;0.00;75.10
40085;DHT22;25786;51.504;7.344;2023-02-28T02:37:00;0.00;75.80
40085;DHT22;25786;51.504;7.344;2023-02-28T02:39:45;0.00;76.00
40085;DHT22;25786;51.504;7.344;2023-02-28T02:42:14;0.00;75.80
40085;DHT22;25786;51.504;7.344;2023-02-28T02:44:42;0.00;75.50
40085;DHT22;25786;51.504;7.344;2023-02-28T02:47:10;0.00;76.00
40085;DHT22;25786;51.504;7.344;2023-02-28T02:49:38;0.00;75.20
40085;DHT22;25786;51.504;7.344;2023-02-28T02:52:08;0.00;75.10
40085;DHT22;25786;51.504;7.344;2023-02-28T02:54:35;0.00;75.50
40085;DHT22;25786;51.504;7.344;2023-02-28T02:57:03;0.00;75.50
40085;DHT22;25786;51.504;7.344;2023-02-28T02:59:29;0.00;75.50
40085;DHT22;25786;51.504;7.344;2023-02-28T03:01:56;0.00;75.20
40085;DHT22;25786;51.504;7.344;2023-02-28T03:04:23;0.00;75.50
40085;DHT22;25786;51.504;7.344;2023-02-28T03:06:52;0.00;75.60
40085;DHT22;25786;51.504;7.344;2023-02-28T03:09:24;0.10;75.10
40085;DHT22;25786;51.504;7.344;2023-02-28T03:11:51;0.10;74.60
40085;DHT22;25786;51.504;7.344;2023-02-28T03:14:35;0.10;74.30
40085;DHT22;25786;51.504;7.344;2023-02-28T03:22:24;0.00;74.70
40085;DHT22;25786;51.504;7.344;2023-02-28T03:25:06;0.10;74.90
40085;DHT22;25786;51.504;7.344;2023-02-28T03:27:36;0.00;75.20
40085;DHT22;25786;51.504;7.344;2023-02-28T03:30:12;0.00;75.30
40085;DHT22;25786;51.504;7.344;2023-02-28T03:32:41;-3276.70;75.10
40085;DHT22;25786;51.504;7.344;2023-02-28T03:35:09;-3276.70;75.50
40085;DHT22;25786;51.504;7.344;2023-02-28T03:37:38;-3276.70;75.10
40085;DHT22;25786;51.504;7.344;2023-02-28T03:40:06;-3276.70;74.90
40085;DHT22;25786;51.504;7.344;2023-02-28T03:42:34;0.00;74.30
40085;DHT22;25786;51.504;7.344;2023-02-28T03:45:02;0.00;74.20
40085;DHT22;25786;51.504;7.344;2023-02-28T03:48:11;0.00;74.10
40085;DHT22;25786;51.504;7.344;2023-02-28T03:50:18;0.00;74.10
40085;DHT22;25786;51.504;7.344;2023-02-28T03:52:50;0.00;73.90
40085;DHT22;25786;51.504;7.344;2023-02-28T03:55:16;0.00;73.70
40085;DHT22;25786;51.504;7.344;2023-02-28T04:00:25;0.00;74.00
40085;DHT22;25786;51.504;7.344;2023-02-28T04:02:53;0.00;73.10
40085;DHT22;25786;51.504;7.344;2023-02-28T04:05:19;0.00;73.50
40085;DHT22;25786;51.504;7.344;2023-02-28T04:07:45;0.00;74.10
40085;DHT22;25786;51.504;7.344;2023-02-28T04:10:11;0.00;73.90
40085;DHT22;25786;51.504;7.344;2023-02-28T04:12:36;-3276.60;74.00
40085;DHT22;25786;51.504;7.344;2023-02-28T04:15:02;-3276.50;74.30
40085;DHT22;25786;51.504;7.344;2023-02-28T04:17:28;-3276.50;75.10
40085;DHT22;25786;51.504;7.344;2023-02-28T04:19:53;-3276.50;75.00
40085;DHT22;25786;51.504;7.344;2023-02-28T04:22:22;-3276.60;75.40
40085;DHT22;25786;51.504;7.344;2023-02-28T04:24:47;-3276.70;75.70
40085;DHT22;25786;51.504;7.344;2023-02-28T04:27:13;-3276.60;74.70
40085;DHT22;25786;51.504;7.344;2023-02-28T04:29:40;-3276.60;74.90
40085;DHT22;25786;51.504;7.344;2023-02-28T04:32:09;-3276.60;75.30
40085;DHT22;25786;51.504;7.344;2023-02-28T04:34:35;-3276.50;74.90
40085;DHT22;25786;51.504;7.344;2023-02-28T04:37:01;-3276.50;75.40
40085;DHT22;25786;51.504;7.344;2023-02-28T04:39:26;-3276.50;75.70
40085;DHT22;25786;51.504;7.344;2023-02-28T04:41:52;-3276.50;75.30
40085;DHT22;25786;51.504;7.344;2023-02-28T04:44:17;-3276.70;74.30
40085;DHT22;25786;51.504;7.344;2023-02-28T04:46:43;-3276.70;73.30
40085;DHT22;25786;51.504;7.344;2023-02-28T04:49:10;-3276.60;73.30
40085;DHT22;25786;51.504;7.344;2023-02-28T04:51:36;-3276.60;73.80
40085;DHT22;25786;51.504;7.344;2023-02-28T04:54:01;-3276.50;74.30
40085;DHT22;25786;51.504;7.344;2023-02-28T04:56:27;-3276.60;73.60
40085;DHT22;25786;51.504;7.344;2023-02-28T04:58:52;-3276.50;73.70
40085;DHT22;25786;51.504;7.344;2023-02-28T05:01:21;-3276.40;75.00
40085;DHT22;25786;51.504;7.344;2023-02-28T05:03:47;-3276.40;75.10
40085;DHT22;25786;51.504;7.344;2023-02-28T05:06:13;-3276.40;74.70
40085;DHT22;25786;51.504;7.344;2023-02-28T05:08:38;-3276.30;74.40
40085;DHT22;25786;51.504;7.344;2023-02-28T05:11:06;-3276.20;74.90
40085;DHT22;25786;51.504;7.344;2023-02-28T05:13:31;-3276.20;75.80
40085;DHT22;25786;51.504;7.344;2023-02-28T05:15:57;-3276.10;75.90
40085;DHT22;25786;51.504;7.344;2023-02-28T05:18:22;-3276.20;75.70
40085;DHT22;25786;51.504;7.344;2023-02-28T05:20:48;-3276.00;75.60
40085;DHT22;25786;51.504;7.344;2023-02-28T05:23:13;-3276.00;76.20
40085;DHT22;25786;51.504;7.344;2023-02-28T05:25:39;-3276.10;76.20
40085;DHT22;25786;51.504;7.344;2023-02-28T05:28:05;-3276.10;75.90
40085;DHT22;25786;51.504;7.344;2023-02-28T05:30:31;-3276.00;75.60
40085;DHT22;25786;51.504;7.344;2023-02-28T05:32:57;-3276.00;76.00
40085;DHT22;25786;51.504;7.344;2023-02-28T05:35:22;-3276.00;76.00
40085;DHT22;25786;51.504;7.344;2023-02-28T05:37:48;-3276.00;75.60
40085;DHT22;25786;51.504;7.344;2023-02-28T05:40:13;-3276.00;75.90
40085;DHT22;25786;51.504;7.344;2023-02-28T05:42:40;-3276.00;75.60
40085;DHT22;25786;51.504;7.344;2023-02-28T05:45:06;-3276.00;75.40
40085;DHT22;25786;51.504;7.344;2023-02-28T05:47:32;-3276.00;75.30
40085;DHT22;25786;51.504;7.344;2023-02-28T05:49:57;-3276.10;74.60
40085;DHT22;25786;51.504;7.344;2023-02-28T05:52:23;-3276.20;74.30
40085;DHT22;25786;51.504;7.344;2023-02-28T05:54:48;-3276.10;74.80
40085;DHT22;25786;51.504;7.344;2023-02-28T05:57:14;-3276.00;74.90
40085;DHT22;25786;51.504;7.344;2023-02-28T05:59:40;-3275.90;75.50
40085;DHT22;25786;51.504;7.344;2023-02-28T06:02:06;-3276.00;75.40
40085;DHT22;25786;51.504;7.344;2023-02-28T06:04:35;-3276.00;74.90
40085;DHT22;25786;51.504;7.344;2023-02-28T06:07:01;-3275.90;75.10
40085;DHT22;25786;51.504;7.344;2023-02-28T06:09:26;-3275.90;75.20
40085;DHT22;25786;51.504;7.344;2023-02-28T06:11:52;-3275.90;75.50
40085;DHT22;25786;51.504;7.344;2023-02-28T06:14:18;-3275.90;75.70
40085;DHT22;25786;51.504;7.344;2023-02-28T06:16:44;-3275.80;75.50
40085;DHT22;25786;51.504;7.344;2023-02-28T06:19:10;-3275.90;75.70
40085;DHT22;25786;51.504;7.344;2023-02-28T06:21:35;-3275.90;74.80
40085;DHT22;25786;51.504;7.344;2023-02-28T06:24:01;-3275.80;75.20
40085;DHT22;25786;51.504;7.344;2023-02-28T06:26:27;-3275.80;75.40
40085;DHT22;25786;51.504;7.344;2023-02-28T06:28:53;-3275.80;75.00
40085;DHT22;25786;51.504;7.344;2023-02-28T06:31:18;-3275.70;75.40
40085;DHT22;25786;51.504;7.344;2023-02-28T06:33:44;-3275.70;75.80
40085;DHT22;25786;51.504;7.344;2023-02-28T06:36:11;-3275.80;75.90
40085;DHT22;25786;51.504;7.344;2023-02-28T06:38:36;-3275.80;75.70
40085;DHT22;25786;51.504;7.344;2023-02-28T06:41:02;-3275.90;76.00
40085;DHT22;25786;51.504;7.344;2023-02-28T06:43:28;-3275.90;75.10
40085;DHT22;25786;51.504;7.344;2023-02-28T06:45:55;-3275.90;75.30
40085;DHT22;25786;51.504;7.344;2023-02-28T06:48:20;-3275.90;75.40
40085;DHT22;25786;51.504;7.344;2023-02-28T06:50:46;-3275.70;75.20
40085;DHT22;25786;51.504;7.344;2023-02-28T06:53:12;-3275.70;75.40
40085;DHT22;25786;51.504;7.344;2023-02-28T06:55:38;-3275.70;75.70
40085;DHT22;25786;51.504;7.344;2023-02-28T06:58:04;-3275.70;75.80
40085;DHT22;25786;51.504;7.344;2023-02-28T07:00:43;-3275.80;75.90
40085;DHT22;25786;51.504;7.344;2023-02-28T07:03:09;-3275.80;76.20
40085;DHT22;25786;51.504;7.344;2023-02-28T07:05:35;-3275.90;75.90
40085;DHT22;25786;51.504;7.344;2023-02-28T07:08:00;-3275.90;75.40
40085;DHT22;25786;51.504;7.344;2023-02-28T07:10:26;-3276.00;75.40
40085;DHT22;25786;51.504;7.344;2023-02-28T07:12:51;-3276.00;75.10
40085;DHT22;25786;51.504;7.344;2023-02-28T07:15:17;-3276.00;75.40
40085;DHT22;25786;51.504;7.344;2023-02-28T07:17:42;-3276.00;75.50
40085;DHT22;25786;51.504;7.344;2023-02-28T07:20:08;-3276.10;75.30
40085;DHT22;25786;51.504;7.344;2023-02-28T07:22:34;-3276.10;75.70
40085;DHT22;25786;51.504;7.344;2023-02-28T07:24:59;-3276.10;75.20
40085;DHT22;25786;51.504;7.344;2023-02-28T07:27:24;-3276.20;75.50
40085;DHT22;25786;51.504;7.344;2023-02-28T07:29:51;-3276.20;75.20
40085;DHT22;25786;51.504;7.344;2023-02-28T07:32:17;-3276.20;74.80
40085;DHT22;25786;51.504;7.344;2023-02-28T07:34:43;-3276.20;74.30
40085;DHT22;25786;51.504;7.344;2023-02-28T07:37:09;-3276.30;73.90
40085;DHT22;25786;51.504;7.344;2023-02-28T07:39:34;-3276.20;73.40
40085;DHT22;25786;51.504;7.344;2023-02-28T07:42:00;-3276.20;73.90
40085;DHT22;25786;51.504;7.344;2023-02-28T07:44:27;-3276.20;74.10
40085;DHT22;25786;51.504;7.344;2023-02-28T07:46:52;-3276.20;75.00
40085;DHT22;25786;51.504;7.344;2023-02-28T07:49:18;-3276.30;75.00
40085;DHT22;25786;51.504;7.344;2023-02-28T07:51:43;-3276.40;74.40
40085;DHT22;25786;51.504;7.344;2023-02-28T07:54:09;-3276.50;74.00
40085;DHT22;25786;51.504;7.344;2023-02-28T07:56:34;-3276.60;73.20
40085;DHT22;25786;51.504;7.344;2023-02-28T07:59:00;-3276.70;71.60
40085;DHT22;25786;51.504;7.344;2023-02-28T08:01:26;0.00;71.90
40085;DHT22;25786;51.504;7.344;2023-02-28T08:03:52;0.00;71.30
40085;DHT22;25786;51.504;7.344;2023-02-28T08:06:20;0.00;71.90
40085;DHT22;25786;51.504;7.344;2023-02-28T08:08:46;0.20;71.70
40085;DHT22;25786;51.504;7.344;2023-02-28T08:11:11;0.20;71.50
40085;DHT22;25786;51.504;7.344;2023-02-28T08:13:37;0.40;70.60
40085;DHT22;25786;51.504;7.344;2023-02-28T08:16:02;0.30;70.60
40085;DHT22;25786;51.504;7.344;2023-02-28T08:18:28;0.20;71.10
40085;DHT22;25786;51.504;7.344;2023-02-28T08:20:53;0.10;70.70
40085;DHT22;25786;51.504;7.344;2023-02-28T08:23:19;0.20;70.10
40085;DHT22;25786;51.504;7.344;2023-02-28T08:25:44;0.40;68.80
40085;DHT22;25786;51.504;7.344;2023-02-28T08:28:10;0.30;68.40
40085;DHT22;25786;51.504;7.344;2023-02-28T08:30:35;0.20;69.10
40085;DHT22;25786;51.504;7.344;2023-02-28T08:33:01;0.30;69.20
40085;DHT22;25786;51.504;7.344;2023-02-28T08:35:27;0.40;68.90
40085;DHT22;25786;51.504;7.344;2023-02-28T08:37:52;0.40;69.20
40085;DHT22;25786;51.504;7.344;2023-02-28T08:40:17;0.50;69.30
40085;DHT22;25786;51.504;7.344;2023-02-28T08:42:44;0.50;70.30
40085;DHT22;25786;51.504;7.344;2023-02-28T08:45:10;0.60;69.80
40085;DHT22;25786;51.504;7.344;2023-02-28T08:47:35;0.60;69.40
40085;DHT22;25786;51.504;7.344;2023-02-28T08:50:01;0.60;67.80
40085;DHT22;25786;51.504;7.344;2023-02-28T08:52:26;0.60;67.50
40085;DHT22;25786;51.504;7.344;2023-02-28T08:54:52;0.70;68.90
40085;DHT22;25786;51.504;7.344;2023-02-28T08:57:17;0.80;69.60
40085;DHT22;25786;51.504;7.344;2023-02-28T08:59:43;0.90;67.10
40085;DHT22;25786;51.504;7.344;2023-02-28T09:02:10;0.90;66.60
40085;DHT22;25786;51.504;7.344;2023-02-28T09:04:37;1.00;67.10
40085;DHT22;25786;51.504;7.344;2023-02-28T09:07:02;1.10;65.00
40085;DHT22;25786;51.504;7.344;2023-02-28T09:09:28;1.10;64.80
40085;DHT22;25786;51.504;7.344;2023-02-28T09:11:55;1.10;65.90
40085;DHT22;25786;51.504;7.344;2023-02-28T09:14:20;1.30;66.00
40085;DHT22;25786;51.504;7.344;2023-02-28T09:16:46;1.40;63.40
40085;DHT22;25786;51.504;7.344;2023-02-28T09:19:11;1.50;64.30
40085;DHT22;25786;51.504;7.344;2023-02-28T09:21:37;1.70;63.60
40085;DHT22;25786;51.504;7.344;2023-02-28T09:24:02;1.80;62.70
40085;DHT22;25786;51.504;7.344;2023-02-28T09:26:28;1.70;62.20
40085;DHT22;25786;51.504;7.344;2023-02-28T09:28:54;1.90;62.80
40085;DHT22;25786;51.504;7.344;2023-02-28T09:31:21;2.00;61.10
40085;DHT22;25786;51.504;7.344;2023-02-28T09:33:50;2.00;62.10
40085;DHT22;25786;51.504;7.344;2023-02-28T09:36:16;2.10;62.10
40085;DHT22;25786;51.504;7.344;2023-02-28T09:38:41;2.10;60.50
40085;DHT22;25786;51.504;7.344;2023-02-28T09:41:12;2.10;60.80
40085;DHT22;25786;51.504;7.344;2023-02-28T09:43:39;2.10;61.00
40085;DHT22;25786;51.504;7.344;2023-02-28T09:46:08;2.10;59.20
40085;DHT22;25786;51.504;7.344;2023-02-28T09:48:39;2.20;59.40
40085;DHT22;25786;51.504;7.344;2023-02-28T09:53:41;2.30;58.70
40085;DHT22;25786;51.504;7.344;2023-02-28T09:56:07;2.30;58.00
40085;DHT22;25786;51.504;7.344;2023-02-28T10:01:04;2.40;58.80
40085;DHT22;25786;51.504;7.344;2023-02-28T10:03:53;2.50;59.60
40085;DHT22;25786;51.504;7.344;2023-02-28T10:06:21;2.60;58.40
40085;DHT22;25786;51.504;7.344;2023-02-28T10:08:56;2.60;58.40
40085;DHT22;25786;51.504;7.344;2023-02-28T10:11:25;2.70;58.40
40085;DHT22;25786;51.504;7.344;2023-02-28T10:13:53;2.70;56.70
40085;DHT22;25786;51.504;7.344;2023-02-28T10:16:39;2.70;56.00
40085;DHT22;25786;51.504;7.344;2023-02-28T10:24:34;2.40;56.90
40085;DHT22;25786;51.504;7.344;2023-02-28T10:27:01;2.60;57.00
40085;DHT22;25786;51.504;7.344;2023-02-28T10:29:31;2.80;57.60
40085;DHT22;25786;51.504;7.344;2023-02-28T10:31:57;2.90;56.10
40085;DHT22;25786;51.504;7.344;2023-02-28T10:34:23;2.90;55.30
40085;DHT22;25786;51.504;7.344;2023-02-28T10:36:49;2.90;56.00
40085;DHT22;25786;51.504;7.344;2023-02-28T10:41:59;3.00;53.40
40085;DHT22;25786;51.504;7.344;2023-02-28T10:44:25;3.10;55.50
40085;DHT22;25786;51.504;7.344;2023-02-28T10:46:50;3.20;53.60
40085;DHT22;25786;51.504;7.344;2023-02-28T10:49:21;3.10;52.40
40085;DHT22;25786;51.504;7.344;2023-02-28T10:51:47;3.30;55.90
40085;DHT22;25786;51.504;7.344;2023-02-28T10:54:15;3.40;52.80
40085;DHT22;25786;51.504;7.344;2023-02-28T10:56:40;3.40;53.60
40085;DHT22;25786;51.504;7.344;2023-02-28T11:01:47;3.70;53.80
40085;DHT22;25786;51.504;7.344;2023-02-28T11:06:48;3.60;51.80
40085;DHT22;25786;51.504;7.344;2023-02-28T11:09:23;3.60;52.30
40085;DHT22;25786;51.504;7.344;2023-02-28T11:11:51;3.60;53.60
40085;DHT22;25786;51.504;7.344;2023-02-28T11:14:24;3.70;50.60
40085;DHT22;25786;51.504;7.344;2023-02-28T11:16:50;3.70;52.20
40085;DHT22;25786;51.504;7.344;2023-02-28T11:19:40;3.80;52.20
40085;DHT22;25786;51.504;7.344;2023-02-28T11:22:05;3.80;52.00
40085;DHT22;25786;51.504;7.344;2023-02-28T11:24:32;3.70;52.30
40085;DHT22;25786;51.504;7.344;2023-02-28T11:26:59;3.80;51.80
40085;DHT22;25786;51.504;7.344;2023-02-28T11:29:26;3.80;53.00
40085;DHT22;25786;51.504;7.344;2023-02-28T11:32:00;3.80;51.80
40085;DHT22;25786;51.504;7.344;2023-02-28T11:34:26;4.00;53.50
40085;DHT22;25786;51.504;7.344;2023-02-28T11:36:56;4.00;52.90
40085;DHT22;25786;51.504;7.344;2023-02-28T11:39:22;4.10;52.50
40085;DHT22;25786;51.504;7.344;2023-02-28T11:44:59;4.10;53.00
40085;DHT22;25786;51.504;7.344;2023-02-28T11:55:31;3.80;51.50
40085;DHT22;25786;51.504;7.344;2023-02-28T11:58:14;4.00;52.50
40085;DHT22;25786;51.504;7.344;2023-02-28T12:06:43;3.80;52.10
40085;DHT22;25786;51.504;7.344;2023-02-28T12:08:53;3.90;52.50
40085;DHT22;25786;51.504;7.344;2023-02-28T12:19:16;4.40;51.30
40085;DHT22;25786;51.504;7.344;2023-02-28T12:26:51;4.30;50.60
40085;DHT22;25786;51.504;7.344;2023-02-28T12:29:23;4.40;51.90
40085;DHT22;25786;51.504;7.344;2023-02-28T12:31:50;4.40;51.00
40085;DHT22;25786;51.504;7.344;2023-02-28T12:34:21;4.40;51.70
40085;DHT22;25786;51.504;7.344;2023-02-28T12:36:48;4.40;51.10
40085;DHT22;25786;51.504;7.344;2023-02-28T12:39:20;4.50;51.20
40085;DHT22;25786;51.504;7.344;2023-02-28T12:41:56;4.30;52.00
40085;DHT22;25786;51.504;7.344;2023-02-28T12:44:35;4.40;52.70
40085;DHT22;25786;51.504;7.344;2023-02-28T12:47:03;4.40;52.60
40085;DHT22;25786;51.504;7.344;2023-02-28T12:49:34;4.50;53.10
40085;DHT22;25786;51.504;7.344;2023-02-28T12:52:02;4.60;53.50
40085;DHT22;25786;51.504;7.344;2023-02-28T12:54:30;4.70;53.50
40085;DHT22;25786;51.504;7.344;2023-02-28T12:57:03;4.60;51.90
40085;DHT22;25786;51.504;7.344;2023-02-28T12:59:36;4.70;53.00
40085;DHT22;25786;51.504;7.344;2023-02-28T13:04:46;4.90;51.60
40085;DHT22;25786;51.504;7.344;2023-02-28T13:09:54;5.00;54.70
40085;DHT22;25786;51.504;7.344;2023-02-28T13:12:20;5.00;53.30
40085;DHT22;25786;51.504;7.344;2023-02-28T13:14:48;4.80;53.50
40085;DHT22;25786;51.504;7.344;2023-02-28T13:17:21;4.90;54.10
40085;DHT22;25786;51.504;7.344;2023-02-28T13:22:20;5.10;54.60
40085;DHT22;25786;51.504;7.344;2023-02-28T13:25:00;5.10;52.80
40085;DHT22;25786;51.504;7.344;2023-02-28T13:27:33;4.80;52.30
40085;DHT22;25786;51.504;7.344;2023-02-28T13:29:59;4.70;52.90
40085;DHT22;25786;51.504;7.344;2023-02-28T13:39:56;4.60;53.40
40085;DHT22;25786;51.504;7.344;2023-02-28T13:45:32;4.60;53.20
40085;DHT22;25786;51.504;7.344;2023-02-28T13:47:39;4.60;53.10
40085;DHT22;25786;51.504;7.344;2023-02-28T14:03:10;4.70;54.60
40085;DHT22;25786;51.504;7.344;2023-02-28T14:05:38;4.70;54.20
40085;DHT22;25786;51.504;7.344;2023-02-28T14:08:05;4.70;54.00
40085;DHT22;25786;51.504;7.344;2023-02-28T14:10:33;4.60;55.90
40085;DHT22;25786;51.504;7.344;2023-02-28T14:13:01;4.60;56.10
40085;DHT22;25786;51.504;7.344;2023-02-28T14:18:11;4.70;55.40
40085;DHT22;25786;51.504;7.344;2023-02-28T14:20:39;4.70;54.60
40085;DHT22;25786;51.504;7.344;2023-02-28T14:31:00;4.50;56.00
40085;DHT22;25786;51.504;7.344;2023-02-28T14:36:32;4.60;54.00
40085;DHT22;25786;51.504;7.344;2023-02-28T14:39:04;4.50;54.40
40085;DHT22;25786;51.504;7.344;2023-02-28T14:41:35;4.60;54.00
40085;DHT22;25786;51.504;7.344;2023-02-28T14:44:02;4.70;52.40
40085;DHT22;25786;51.504;7.344;2023-02-28T14:46:33;4.70;52.10
40085;DHT22;25786;51.504;7.344;2023-02-28T14:49:01;4.70;51.90
40085;DHT22;25786;51.504;7.344;2023-02-28T14:51:26;4.70;54.30
40085;DHT22;25786;51.504;7.344;2023-02-28T14:53:57;4.70;54.10
40085;DHT22;25786;51.504;7.344;2023-02-28T14:56:25;4.60;54.10
40085;DHT22;25786;51.504;7.344;2023-02-28T14:58:52;4.60;54.60
40085;DHT22;25786;51.504;7.344;2023-02-28T15:01:19;4.60;54.60
40085;DHT22;25786;51.504;7.344;2023-02-28T15:03:44;4.50;54.40
40085;DHT22;25786;51.504;7.344;2023-02-28T15:06:14;4.50;53.00
40085;DHT22;25786;51.504;7.344;2023-02-28T15:08:43;4.50;54.10
40085;DHT22;25786;51.504;7.344;2023-02-28T15:13:48;4.60;54.60
40085;DHT22;25786;51.504;7.344;2023-02-28T15:16:16;4.60;53.80
40085;DHT22;25786;51.504;7.344;2023-02-28T15:21:15;4.60;54.00
40085;DHT22;25786;51.504;7.344;2023-02-28T15:23:42;4.50;53.50
40085;DHT22;25786;51.504;7.344;2023-02-28T15:26:16;4.60;52.00
40085;DHT22;25786;51.504;7.344;2023-02-28T15:28:43;4.50;52.70
40085;DHT22;25786;51.504;7.344;2023-02-28T15:31:19;4.60;52.60
40085;DHT22;25786;51.504;7.344;2023-02-28T15:33:55;4.70;52.40
40085;DHT22;25786;51.504;7.344;2023-02-28T15:36:23;4.60;52.30
40085;DHT22;25786;51.504;7.344;2023-02-28T15:38:50;4.60;53.10
40085;DHT22;25786;51.504;7.344;2023-02-28T15:41:37;4.50;53.50
40085;DHT22;25786;51.504;7.344;2023-02-28T15:44:25;4.50;54.40
40085;DHT22;25786;51.504;7.344;2023-02-28T15:49:23;4.70;54.40
40085;DHT22;25786;51.504;7.344;2023-02-28T15:51:50;4.70;54.20
40085;DHT22;25786;51.504;7.344;2023-02-28T15:54:22;4.80;54.60
40085;DHT22;25786;51.504;7.344;2023-02-28T15:56:50;4.50;56.30
40085;DHT22;25786;51.504;7.344;2023-02-28T15:59:20;4.50;56.40
40085;DHT22;25786;51.504;7.344;2023-02-28T16:01:46;4.60;54.50
40085;DHT22;25786;51.504;7.344;2023-02-28T16:04:15;4.60;54.70
40085;DHT22;25786;51.504;7.344;2023-02-28T16:06:45;4.40;55.30
40085;DHT22;25786;51.504;7.344;2023-02-28T16:09:12;4.40;55.50
40085;DHT22;25786;51.504;7.344;2023-02-28T16:11:42;4.40;55.00
40085;DHT22;25786;51.504;7.344;2023-02-28T16:14:11;4.40;54.80
40085;DHT22;25786;51.504;7.344;2023-02-28T16:16:41;4.20;55.80
40085;DHT22;25786;51.504;7.344;2023-02-28T16:19:07;4.10;56.30
40085;DHT22;25786;51.504;7.344;2023-02-28T16:21:33;4.20;55.60
40085;DHT22;25786;51.504;7.344;2023-02-28T16:23:58;4.40;55.00
40085;DHT22;25786;51.504;7.344;2023-02-28T16:26:24;4.30;55.00
40085;DHT22;25786;51.504;7.344;2023-02-28T16:28:50;4.30;54.80
40085;DHT22;25786;51.504;7.344;2023-02-28T16:31:16;4.30;55.10
40085;DHT22;25786;51.504;7.344;2023-02-28T16:33:43;4.10;55.50
40085;DHT22;25786;51.504;7.344;2023-02-28T16:36:11;4.00;56.50
40085;DHT22;25786;51.504;7.344;2023-02-28T16:38:38;4.00;55.90
40085;DHT22;25786;51.504;7.344;2023-02-28T16:41:03;4.00;56.40
40085;DHT22;25786;51.504;7.344;2023-02-28T16:43:30;3.90;56.40
40085;DHT22;25786;51.504;7.344;2023-02-28T16:45:56;4.00;56.00
40085;DHT22;25786;51.504;7.344;2023-02-28T16:48:23;3.90;56.40
40085;DHT22;25786;51.504;7.344;2023-02-28T16:50:48;3.80;56.90
40085;DHT22;25786;51.504;7.344;2023-02-28T16:53:14;3.90;56.40
40085;DHT22;25786;51.504;7.344;2023-02-28T16:55:40;3.90;56.50
40085;DHT22;25786;51.504;7.344;2023-02-28T16:58:06;3.90;56.60
40085;DHT22;25786;51.504;7.344;2023-02-28T17:00:31;3.80;56.90
40085;DHT22;25786;51.504;7.344;2023-02-28T17:02:57;3.80;57.10
40085;DHT22;25786;51.504;7.344;2023-02-28T17:05:24;3.80;57.00
40085;DHT22;25786;51.504;7.344;2023-02-28T17:07:50;3.80;57.20
40085;DHT22;25786;51.504;7.344;2023-02-28T17:10:21;3.80;57.20
40085;DHT22;25786;51.504;7.344;2023-02-28T17:12:46;3.70;57.30
40085;DHT22;25786;51.504;7.344;2023-02-28T17:15:13;3.70;57.60
40085;DHT22;25786;51.504;7.344;2023-02-28T17:17:39;3.70;57.60
40085;DHT22;25786;51.504;7.344;2023-02-28T17:20:05;3.70;58.00
40085;DHT22;25786;51.504;7.344;2023-02-28T17:22:31;3.70;58.00
40085;DHT22;25786;51.504;7.344;2023-02-28T17:24:56;3.90;57.60
40085;DHT22;25786;51.504;7.344;2023-02-28T17:27:24;3.70;57.70
40085;DHT22;25786;51.504;7.344;2023-02-28T17:29:50;3.60;58.20
40085;DHT22;25786;51.504;7.344;2023-02-28T17:32:15;3.60;58.00
40085;DHT22;25786;51.504;7.344;2023-02-28T17:34:41;3.50;58.30
40085;DHT22;25786;51.504;7.344;2023-02-28T17:37:08;3.50;58.20